createdAt,value
2022-11-20T00:01:20.901Z,83.63
2022-11-20T00:03:47.569Z,84.52
2022-11-20T00:06:16.832Z,84.35
2022-11-20T00:08:43.654Z,85.18
2022-11-20T00:11:15.789Z,85.47
2022-11-20T00:13:47.126Z,85.10
2022-11-20T00:16:15.205Z,85.57
2022-11-20T00:18:43.273Z,86.21
2022-11-20T00:21:18.801Z,85.97
2022-11-20T00:23:45.727Z,86.23
2022-11-20T00:26:14.868Z,86.29
2022-11-20T00:28:42.018Z,86.25
2022-11-20T00:31:11.517Z,85.85
2022-11-20T00:33:38.082Z,85.39
2022-11-20T00:36:07.067Z,85.57
2022-11-20T00:38:33.909Z,85.56
2022-11-20T00:41:02.184Z,85.17
2022-11-20T00:43:29.021Z,85.97
2022-11-20T00:46:02.631Z,85.75
2022-11-20T00:48:29.563Z,85.21
2022-11-20T00:50:56.412Z,85.00
2022-11-20T00:53:22.916Z,85.79
2022-11-20T00:55:59.505Z,85.26
2022-11-20T00:58:29.836Z,85.38
2022-11-20T01:01:07.699Z,85.05
2022-11-20T01:03:35.658Z,84.76
2022-11-20T01:06:04.242Z,85.23
2022-11-20T01:08:32.775Z,85.50
2022-11-20T01:11:08.547Z,85.66
2022-11-20T01:13:38.430Z,85.05
2022-11-20T01:16:13.804Z,85.95
2022-11-20T01:18:42.440Z,85.67
2022-11-20T01:21:11.843Z,85.39
2022-11-20T01:23:39.932Z,85.03
2022-11-20T01:26:12.291Z,85.78
2022-11-20T01:28:39.420Z,85.06
2022-11-20T01:31:27.317Z,85.06
2022-11-20T01:33:55.697Z,84.81
2022-11-20T01:36:24.632Z,84.87
2022-11-20T01:38:59.413Z,85.15
2022-11-20T01:41:46.084Z,85.36
2022-11-20T01:44:16.128Z,84.48
2022-11-20T01:46:53.955Z,83.95
2022-11-20T01:49:25.494Z,84.01
2022-11-20T01:51:54.213Z,84.28
2022-11-20T01:54:26.560Z,83.79
2022-11-20T01:56:55.436Z,83.52
2022-11-20T01:59:23.845Z,83.90
2022-11-20T02:01:50.567Z,83.98
2022-11-20T02:04:17.694Z,83.35
2022-11-20T02:06:49.986Z,83.05
2022-11-20T02:09:17.162Z,83.63
2022-11-20T02:11:43.752Z,83.35
2022-11-20T02:14:11.179Z,84.03
2022-11-20T02:16:41.468Z,83.87
2022-11-20T02:19:12.806Z,84.01
2022-11-20T02:22:03.824Z,84.24
2022-11-20T02:24:30.347Z,85.32
2022-11-20T02:27:00.972Z,85.28
2022-11-20T02:29:46.322Z,85.52
2022-11-20T02:32:24.325Z,85.54
2022-11-20T02:34:50.947Z,85.67
2022-11-20T02:37:17.873Z,86.28
2022-11-20T02:39:45.886Z,86.25
2022-11-20T02:42:12.637Z,86.73
2022-11-20T02:44:39.228Z,86.39
2022-11-20T02:47:05.798Z,86.99
2022-11-20T02:49:32.491Z,86.57
2022-11-20T02:51:58.985Z,86.69
2022-11-20T02:54:25.953Z,87.55
2022-11-20T02:56:52.868Z,87.42
2022-11-20T02:59:19.542Z,87.57
2022-11-20T03:01:46.204Z,87.78
2022-11-20T03:04:12.739Z,87.86
2022-11-20T03:06:39.165Z,88.05
2022-11-20T03:09:05.866Z,88.54
2022-11-20T03:11:32.501Z,88.70
2022-11-20T03:13:58.943Z,88.86
2022-11-20T03:16:25.536Z,89.16
2022-11-20T03:18:53.876Z,89.70
2022-11-20T03:21:20.285Z,90.25
2022-11-20T03:23:46.789Z,90.06
2022-11-20T03:26:16.863Z,90.48
2022-11-20T03:28:47.814Z,90.53
2022-11-20T03:31:15.363Z,91.08
2022-11-20T03:33:42.955Z,91.60
2022-11-20T03:36:11.972Z,91.82
2022-11-20T03:38:38.859Z,91.46
2022-11-20T03:41:13.810Z,91.80
2022-11-20T03:43:40.598Z,91.57
2022-11-20T03:46:07.220Z,91.78
2022-11-20T03:48:35.914Z,91.80
2022-11-20T03:51:16.824Z,92.34
2022-11-20T03:53:45.184Z,92.42
2022-11-20T03:56:12.815Z,92.12
2022-11-20T03:58:43.081Z,91.93
2022-11-20T04:01:34.152Z,92.61
2022-11-20T04:04:00.750Z,93.00
2022-11-20T04:06:29.963Z,93.10
2022-11-20T04:08:57.919Z,92.93
2022-11-20T04:11:29.587Z,93.29
2022-11-20T04:14:01.063Z,92.80
2022-11-20T04:16:30.322Z,92.68
2022-11-20T04:18:58.556Z,93.10
2022-11-20T04:21:26.050Z,92.75
2022-11-20T04:23:56.075Z,93.11
2022-11-20T04:26:24.384Z,93.39
2022-11-20T04:28:51.082Z,93.62
2022-11-20T04:31:19.923Z,93.63
2022-11-20T04:33:47.024Z,93.99
2022-11-20T04:36:20.131Z,94.25
2022-11-20T04:38:48.703Z,94.62
2022-11-20T04:41:18.924Z,95.18
2022-11-20T04:43:50.403Z,95.72
2022-11-20T04:46:18.272Z,95.61
2022-11-20T04:48:44.771Z,95.34
2022-11-20T04:51:11.464Z,94.47
2022-11-20T04:53:37.992Z,94.09
2022-11-20T04:56:07.355Z,94.72
2022-11-20T04:58:35.163Z,94.93
2022-11-20T05:01:06.617Z,94.92
2022-11-20T05:03:35.538Z,94.61
2022-11-20T05:06:06.449Z,95.12
2022-11-20T05:08:34.151Z,95.32
2022-11-20T05:11:14.714Z,95.45
2022-11-20T05:13:41.818Z,95.08
2022-11-20T05:16:10.636Z,95.75
2022-11-20T05:18:38.089Z,94.84
2022-11-20T05:21:05.291Z,94.94
2022-11-20T05:23:32.995Z,95.31
2022-11-20T05:26:00.124Z,95.54
2022-11-20T05:28:27.721Z,95.45
2022-11-20T05:30:54.239Z,95.62
2022-11-20T05:33:20.991Z,95.70
2022-11-20T05:35:47.705Z,95.89
2022-11-20T05:38:14.535Z,96.30
2022-11-20T05:40:41.186Z,96.55
2022-11-20T05:43:07.703Z,96.67
2022-11-20T05:45:35.418Z,96.82
2022-11-20T05:48:02.156Z,97.16
2022-11-20T05:50:29.246Z,97.21
2022-11-20T05:52:56.333Z,96.94
2022-11-20T05:55:23.122Z,96.58
2022-11-20T05:57:49.575Z,96.23
2022-11-20T06:00:16.774Z,96.77
2022-11-20T06:02:43.558Z,96.90
2022-11-20T06:05:10.278Z,96.97
2022-11-20T06:07:36.732Z,96.63
2022-11-20T06:10:03.748Z,97.17
2022-11-20T06:12:32.754Z,97.15
2022-11-20T06:14:59.556Z,96.37
2022-11-20T06:17:26.209Z,96.61
2022-11-20T06:19:52.622Z,95.63
2022-11-20T06:22:19.393Z,95.80
2022-11-20T06:24:46.070Z,96.05
2022-11-20T06:27:12.584Z,96.15
2022-11-20T06:29:39.256Z,96.07
2022-11-20T06:32:06.091Z,96.34
2022-11-20T06:34:32.530Z,96.47
2022-11-20T06:36:59.536Z,96.59
2022-11-20T06:39:26.294Z,95.73
2022-11-20T06:41:58.392Z,95.86
2022-11-20T06:44:25.650Z,95.89
2022-11-20T06:46:52.231Z,95.80
2022-11-20T06:49:19.106Z,95.41
2022-11-20T06:51:45.937Z,94.84
2022-11-20T06:54:12.494Z,94.67
2022-11-20T06:56:38.909Z,94.98
2022-11-20T06:59:07.051Z,94.97
2022-11-20T07:01:34.073Z,95.15
2022-11-20T07:04:00.539Z,95.52
2022-11-20T07:06:27.288Z,95.72
2022-11-20T07:08:53.945Z,94.88
2022-11-20T07:11:20.399Z,94.70
2022-11-20T07:13:46.956Z,94.89
2022-11-20T07:16:13.743Z,95.24
2022-11-20T07:18:40.295Z,96.04
2022-11-20T07:21:08.938Z,95.24
2022-11-20T07:23:36.001Z,93.81
2022-11-20T07:26:09.972Z,93.72
2022-11-20T07:28:36.918Z,94.14
2022-11-20T07:31:03.889Z,93.78
2022-11-20T07:33:30.391Z,93.34
2022-11-20T07:35:57.141Z,93.85
2022-11-20T07:38:23.709Z,92.17
2022-11-20T07:40:54.820Z,92.24
2022-11-20T07:43:21.459Z,91.42
2022-11-20T07:45:47.887Z,91.76
2022-11-20T07:48:14.342Z,91.85
2022-11-20T07:50:41.303Z,91.70
2022-11-20T07:53:07.938Z,91.87
2022-11-20T07:55:37.897Z,91.41
2022-11-20T07:58:04.671Z,91.06
2022-11-20T08:00:31.657Z,89.89
2022-11-20T08:02:58.287Z,89.89
2022-11-20T08:05:24.945Z,90.33
2022-11-20T08:07:51.385Z,89.55
2022-11-20T08:10:17.989Z,89.59
2022-11-20T08:13:07.169Z,89.94
2022-11-20T08:15:37.248Z,84.61
2022-11-20T08:18:30.027Z,78.23
2022-11-20T08:20:55.902Z,58.85
2022-11-20T08:23:23.858Z,48.16
2022-11-20T08:26:09.089Z,36.93
2022-11-20T08:28:41.050Z,32.93
2022-11-20T08:31:07.570Z,33.29
2022-11-20T08:33:34.698Z,37.22
2022-11-20T08:36:05.100Z,39.15
2022-11-20T08:38:32.204Z,42.67
2022-11-20T08:41:18.960Z,44.12
2022-11-20T08:43:45.536Z,43.19
2022-11-20T08:46:12.412Z,39.20
2022-11-20T08:48:39.091Z,35.92
2022-11-20T08:51:05.715Z,34.00
2022-11-20T08:53:32.526Z,32.56
2022-11-20T08:55:59.498Z,31.18
2022-11-20T08:58:26.540Z,31.15
2022-11-20T09:00:53.361Z,29.96
2022-11-20T09:03:20.340Z,30.68
2022-11-20T09:05:46.767Z,29.46
2022-11-20T09:08:13.264Z,29.89
2022-11-20T09:10:40.876Z,31.61
2022-11-20T09:13:10.323Z,31.92
2022-11-20T09:15:37.664Z,30.08
2022-11-20T09:18:05.880Z,30.39
2022-11-20T09:20:32.734Z,32.51
2022-11-20T09:22:59.306Z,32.50
2022-11-20T09:25:26.084Z,35.93
2022-11-20T09:27:59.792Z,38.33
2022-11-20T09:30:27.082Z,42.93
2022-11-20T09:32:53.940Z,47.28
2022-11-20T09:35:20.582Z,50.59
2022-11-20T09:37:47.317Z,54.03
2022-11-20T09:40:29.133Z,55.16
2022-11-20T09:43:14.235Z,57.26
2022-11-20T09:46:08.446Z,56.71
2022-11-20T09:48:47.440Z,60.63
2022-11-20T09:51:36.477Z,63.08
2022-11-20T09:54:15.268Z,64.51
2022-11-20T09:56:44.986Z,64.40
2022-11-20T09:59:50.296Z,63.72
2022-11-20T10:02:20.702Z,62.72
2022-11-20T10:04:54.909Z,61.96
2022-11-20T10:07:33.293Z,62.72
2022-11-20T10:10:00.991Z,64.01
2022-11-20T10:12:59.578Z,64.32
2022-11-20T10:16:07.471Z,64.15
2022-11-20T10:18:43.286Z,63.28
2022-11-20T10:21:27.003Z,64.78
2022-11-20T10:24:20.761Z,63.74
2022-11-20T10:26:53.683Z,63.14
2022-11-20T10:29:24.021Z,63.56
2022-11-20T10:32:16.196Z,64.22
2022-11-20T10:34:50.712Z,65.28
2022-11-20T10:37:20.447Z,67.67
2022-11-20T10:39:58.842Z,66.80
2022-11-20T10:42:31.669Z,65.49
2022-11-20T10:45:44.614Z,66.32
2022-11-20T10:48:16.538Z,65.67
2022-11-20T10:51:10.087Z,66.47
2022-11-20T10:54:02.264Z,64.63
2022-11-20T10:56:36.047Z,65.04
2022-11-20T10:59:29.026Z,64.19
2022-11-20T11:02:00.552Z,64.07
2022-11-20T11:04:35.807Z,63.92
2022-11-20T11:07:09.528Z,64.14
2022-11-20T11:09:40.881Z,63.56
2022-11-20T11:12:09.373Z,63.88
2022-11-20T11:14:50.892Z,63.75
2022-11-20T11:17:30.656Z,63.17
2022-11-20T11:20:12.458Z,63.04
2022-11-20T11:22:48.974Z,63.32
2022-11-20T11:25:36.326Z,62.77
2022-11-20T11:28:21.294Z,63.23
2022-11-20T11:30:50.296Z,63.99
2022-11-20T11:33:31.379Z,63.05
2022-11-20T11:36:04.133Z,63.23
2022-11-20T11:38:42.284Z,64.59
2022-11-20T11:41:15.007Z,65.22
2022-11-20T11:44:10.867Z,64.18
2022-11-20T11:46:38.014Z,65.14
2022-11-20T11:49:04.404Z,64.55
2022-11-20T11:51:35.612Z,64.73
2022-11-20T11:54:04.941Z,64.71
2022-11-20T11:56:31.865Z,65.53
2022-11-20T11:59:02.050Z,65.84
2022-11-20T12:01:39.834Z,65.39
2022-11-20T12:04:35.880Z,64.93
2022-11-20T12:07:31.031Z,64.93
2022-11-20T12:09:55.495Z,65.13
2022-11-20T12:12:28.126Z,64.73
2022-11-20T12:14:55.804Z,64.37
2022-11-20T12:17:22.281Z,64.54
2022-11-20T12:19:49.593Z,64.95
2022-11-20T12:22:37.265Z,64.67
2022-11-20T12:25:20.881Z,64.38
2022-11-20T12:28:05.400Z,64.58
2022-11-20T12:30:35.377Z,65.55
2022-11-20T12:33:29.936Z,66.74
2022-11-20T12:36:08.559Z,67.74
2022-11-20T12:38:59.573Z,67.21
2022-11-20T12:41:59.511Z,67.41
2022-11-20T12:45:13.842Z,67.16
2022-11-20T12:47:45.364Z,68.02
2022-11-20T12:50:27.406Z,67.15
2022-11-20T12:52:57.677Z,66.85
2022-11-20T12:55:52.113Z,67.62
2022-11-20T12:58:42.103Z,67.50
2022-11-20T13:01:49.724Z,67.88
2022-11-20T13:04:49.189Z,69.07
2022-11-20T13:07:16.444Z,69.27
2022-11-20T13:09:48.137Z,69.65
2022-11-20T13:12:19.761Z,69.63
2022-11-20T13:15:01.462Z,69.95
2022-11-20T13:18:04.281Z,70.36
2022-11-20T13:20:31.415Z,70.32
2022-11-20T13:22:58.787Z,70.24
2022-11-20T13:25:27.471Z,71.19
2022-11-20T13:27:54.931Z,71.81
2022-11-20T13:30:25.989Z,70.72
2022-11-20T13:33:06.487Z,70.10
2022-11-20T13:35:38.489Z,71.00
2022-11-20T13:38:15.629Z,71.78
2022-11-20T13:40:56.523Z,71.82
2022-11-20T13:43:40.753Z,72.24
2022-11-20T13:46:09.305Z,72.59
2022-11-20T13:48:43.863Z,73.13
2022-11-20T13:51:38.530Z,73.60
2022-11-20T13:54:42.592Z,73.72
2022-11-20T13:57:37.219Z,74.21
2022-11-20T14:00:14.450Z,74.86
2022-11-20T14:02:41.652Z,75.04
2022-11-20T14:05:20.712Z,75.45
2022-11-20T14:07:48.550Z,76.29
2022-11-20T14:10:32.289Z,77.11
2022-11-20T14:12:59.431Z,77.40
2022-11-20T14:15:32.790Z,75.93
2022-11-20T14:17:59.877Z,76.40
2022-11-20T14:20:28.947Z,77.11
2022-11-20T14:22:56.140Z,76.67
2022-11-20T14:25:27.783Z,77.07
2022-11-20T14:27:58.904Z,77.82
2022-11-20T14:30:27.663Z,77.77
2022-11-20T14:32:56.714Z,77.13
2022-11-20T14:35:28.571Z,77.65
2022-11-20T14:37:56.018Z,79.04
2022-11-20T14:40:25.140Z,79.49
2022-11-20T14:42:52.125Z,79.19
2022-11-20T14:45:19.388Z,78.51
2022-11-20T14:47:46.260Z,80.07
2022-11-20T14:50:24.581Z,81.41
2022-11-20T14:53:01.593Z,83.64
2022-11-20T14:55:29.420Z,85.28
2022-11-20T14:57:57.713Z,86.41
2022-11-20T15:00:24.798Z,87.53
2022-11-20T15:02:52.643Z,88.18
2022-11-20T15:05:21.837Z,89.01
2022-11-20T15:07:51.020Z,90.14
2022-11-20T15:10:25.375Z,90.61
2022-11-20T15:12:57.944Z,91.01
2022-11-20T15:15:31.481Z,91.81
2022-11-20T15:17:58.659Z,91.49
2022-11-20T15:20:33.232Z,92.41
2022-11-20T15:23:00.129Z,91.88
2022-11-20T15:25:26.794Z,92.07
2022-11-20T15:27:56.668Z,92.55
2022-11-20T15:30:24.247Z,92.47
2022-11-20T15:32:50.738Z,91.75
2022-11-20T15:35:17.481Z,91.99
2022-11-20T15:37:44.041Z,92.07
2022-11-20T15:40:11.142Z,92.75
2022-11-20T15:42:37.876Z,93.84
2022-11-20T15:45:04.936Z,94.57
2022-11-20T15:47:35.654Z,95.00
2022-11-20T15:50:02.275Z,95.65
2022-11-20T15:52:36.304Z,95.65
2022-11-20T15:55:11.030Z,95.25
2022-11-20T15:57:37.757Z,96.03
2022-11-20T16:00:04.804Z,96.77
2022-11-20T16:02:31.844Z,97.46
2022-11-20T16:04:58.582Z,98.15
2022-11-20T16:07:25.159Z,98.98
2022-11-20T16:09:56.816Z,99.41
2022-11-20T16:12:42.381Z,99.94
2022-11-20T16:15:28.991Z,100.00
2022-11-20T16:17:55.535Z,100.00
2022-11-20T16:20:22.559Z,100.00
2022-11-20T16:22:50.157Z,100.00
2022-11-20T16:25:16.957Z,100.00
2022-11-20T16:27:43.522Z,100.00
2022-11-20T16:30:11.283Z,100.00
2022-11-20T16:32:39.596Z,100.00
2022-11-20T16:35:08.529Z,100.00
2022-11-20T16:37:38.120Z,100.00
2022-11-20T16:40:05.209Z,100.00
2022-11-20T16:42:35.219Z,100.00
2022-11-20T16:45:01.840Z,100.00
2022-11-20T16:47:28.481Z,100.00
2022-11-20T16:49:54.958Z,100.00
2022-11-20T16:52:21.570Z,100.00
2022-11-20T16:54:48.114Z,100.00
2022-11-20T16:57:14.609Z,100.00
2022-11-20T16:59:41.656Z,100.00
2022-11-20T17:02:10.566Z,100.00
2022-11-20T17:04:37.625Z,100.00
2022-11-20T17:07:08.139Z,100.00
2022-11-20T17:09:35.642Z,100.00
2022-11-20T17:12:02.193Z,100.00
2022-11-20T17:14:28.988Z,100.00
2022-11-20T17:16:55.515Z,100.00
2022-11-20T17:19:22.001Z,100.00
2022-11-20T17:21:48.898Z,100.00
2022-11-20T17:24:18.405Z,100.00
2022-11-20T17:26:45.737Z,100.00
2022-11-20T17:29:15.071Z,100.00
2022-11-20T17:31:42.560Z,100.00
2022-11-20T17:34:12.139Z,100.00
2022-11-20T17:36:45.436Z,100.00
2022-11-20T17:39:14.072Z,100.00
2022-11-20T17:41:40.944Z,100.00
2022-11-20T17:44:10.626Z,100.00
2022-11-20T17:46:37.239Z,100.00
2022-11-20T17:49:04.881Z,100.00
2022-11-20T17:51:33.865Z,100.00
2022-11-20T17:54:03.490Z,100.00
2022-11-20T17:56:53.524Z,100.00
2022-11-20T17:59:20.391Z,100.00
2022-11-20T18:01:47.277Z,100.00
2022-11-20T18:04:14.309Z,100.00
2022-11-20T18:06:41.197Z,100.00
2022-11-20T18:09:07.805Z,100.00
2022-11-20T18:11:39.763Z,100.00
2022-11-20T18:14:29.177Z,100.00
2022-11-20T18:16:58.094Z,100.00
2022-11-20T18:19:31.996Z,100.00
2022-11-20T18:22:01.294Z,100.00
2022-11-20T18:24:27.901Z,100.00
2022-11-20T18:26:54.319Z,100.00
2022-11-20T18:29:21.090Z,100.00
2022-11-20T18:31:48.778Z,100.00
2022-11-20T18:34:16.037Z,100.00
2022-11-20T18:36:43.045Z,100.00
2022-11-20T18:39:11.922Z,100.00
2022-11-20T18:41:57.719Z,100.00
2022-11-20T18:44:46.080Z,100.00
2022-11-20T18:47:15.792Z,100.00
2022-11-20T18:49:46.188Z,100.00
2022-11-20T18:52:13.336Z,100.00
2022-11-20T18:54:39.838Z,100.00
2022-11-20T18:57:06.578Z,100.00
2022-11-20T18:59:33.223Z,100.00
2022-11-20T19:01:59.827Z,100.00
2022-11-20T19:04:27.017Z,100.00
2022-11-20T19:06:56.211Z,100.00
2022-11-20T19:09:23.865Z,100.00
2022-11-20T19:11:50.946Z,100.00
2022-11-20T19:14:17.421Z,100.00
2022-11-20T19:16:43.884Z,100.00
2022-11-20T19:19:10.745Z,100.00
2022-11-20T19:21:37.306Z,100.00
2022-11-20T19:24:04.402Z,100.00
2022-11-20T19:26:31.491Z,100.00
2022-11-20T19:28:58.872Z,100.00
2022-11-20T19:31:29.277Z,100.00
2022-11-20T19:33:59.394Z,100.00
2022-11-20T19:36:28.704Z,100.00
2022-11-20T19:38:55.813Z,100.00
2022-11-20T19:41:29.072Z,100.00
2022-11-20T19:43:57.656Z,100.00
2022-11-20T19:46:25.373Z,100.00
2022-11-20T19:48:52.317Z,100.00
2022-11-20T19:51:21.222Z,100.00
2022-11-20T19:53:48.222Z,100.00
2022-11-20T19:56:14.963Z,100.00
2022-11-20T19:58:41.907Z,100.00
2022-11-20T20:01:10.530Z,100.00
2022-11-20T20:03:37.807Z,100.00
2022-11-20T20:06:05.165Z,100.00
2022-11-20T20:08:31.841Z,100.00
2022-11-20T20:10:59.767Z,100.00
2022-11-20T20:13:27.019Z,100.00
2022-11-20T20:15:53.564Z,100.00
2022-11-20T20:18:20.016Z,100.00
2022-11-20T20:20:46.519Z,100.00
2022-11-20T20:23:13.045Z,100.00
2022-11-20T20:25:39.495Z,100.00
2022-11-20T20:28:05.939Z,100.00
2022-11-20T20:30:32.427Z,100.00
2022-11-20T20:32:58.983Z,100.00
2022-11-20T20:35:25.644Z,100.00
2022-11-20T20:37:52.265Z,100.00
2022-11-20T20:40:19.272Z,100.00
2022-11-20T20:42:45.844Z,100.00
2022-11-20T20:45:12.419Z,100.00
2022-11-20T20:47:40.505Z,100.00
2022-11-20T20:50:09.857Z,100.00
2022-11-20T20:52:36.611Z,100.00
2022-11-20T20:55:03.777Z,100.00
2022-11-20T20:57:30.533Z,100.00
2022-11-20T20:59:57.130Z,100.00
2022-11-20T21:02:23.979Z,100.00
2022-11-20T21:04:50.902Z,100.00
2022-11-20T21:07:17.892Z,100.00
2022-11-20T21:09:44.629Z,100.00
2022-11-20T21:12:11.745Z,100.00
2022-11-20T21:14:38.319Z,100.00
2022-11-20T21:17:04.956Z,100.00
2022-11-20T21:19:32.316Z,100.00
2022-11-20T21:21:59.007Z,100.00
2022-11-20T21:24:30.691Z,100.00
2022-11-20T21:26:57.745Z,100.00
2022-11-20T21:29:25.550Z,100.00
2022-11-20T21:31:53.301Z,100.00
2022-11-20T21:34:21.034Z,100.00
2022-11-20T21:36:48.038Z,100.00
2022-11-20T21:39:15.550Z,100.00
2022-11-20T21:41:42.183Z,100.00
2022-11-20T21:46:59.036Z,100.00
2022-11-20T21:49:25.822Z,100.00
2022-11-20T21:51:53.717Z,100.00
2022-11-20T21:54:20.283Z,100.00
2022-11-20T21:56:46.807Z,100.00
2022-11-20T21:59:13.972Z,100.00
2022-11-20T22:01:40.550Z,100.00
2022-11-20T22:04:08.120Z,100.00
2022-11-20T22:06:37.680Z,100.00
2022-11-20T22:09:04.250Z,100.00
2022-11-20T22:11:30.880Z,100.00
2022-11-20T22:14:16.107Z,100.00
2022-11-20T22:16:42.543Z,100.00
2022-11-20T22:19:09.293Z,100.00
2022-11-20T22:21:36.058Z,100.00
2022-11-20T22:24:02.728Z,100.00
2022-11-20T22:26:35.004Z,100.00
2022-11-20T22:29:05.357Z,100.00
2022-11-20T22:31:31.923Z,100.00
2022-11-20T22:33:59.319Z,100.00
2022-11-20T22:36:28.456Z,100.00
2022-11-20T22:38:55.350Z,100.00
2022-11-20T22:41:27.372Z,100.00
2022-11-20T22:43:56.358Z,100.00
2022-11-20T22:46:22.923Z,100.00
2022-11-20T22:48:50.463Z,100.00
2022-11-20T22:51:17.916Z,100.00
2022-11-20T22:53:44.675Z,100.00
2022-11-20T22:56:12.572Z,100.00
2022-11-20T22:58:40.530Z,100.00
2022-11-20T23:01:35.153Z,100.00
2022-11-20T23:04:04.143Z,100.00
2022-11-20T23:06:34.244Z,100.00
2022-11-20T23:09:00.929Z,100.00
2022-11-20T23:11:28.855Z,100.00
2022-11-20T23:14:15.202Z,100.00
2022-11-20T23:16:41.858Z,100.00
2022-11-20T23:19:11.127Z,100.00
2022-11-20T23:21:39.196Z,100.00
2022-11-20T23:24:06.186Z,100.00
2022-11-20T23:26:35.068Z,100.00
2022-11-20T23:29:01.814Z,100.00
2022-11-20T23:31:29.714Z,100.00
2022-11-20T23:33:56.364Z,100.00
2022-11-20T23:36:22.942Z,100.00
2022-11-20T23:38:49.682Z,100.00
2022-11-20T23:41:16.532Z,100.00
2022-11-20T23:43:43.043Z,100.00
2022-11-20T23:46:15.089Z,100.00
2022-11-20T23:48:43.109Z,100.00
2022-11-20T23:51:09.576Z,100.00
2022-11-20T23:53:36.240Z,100.00
2022-11-20T23:56:04.899Z,100.00
2022-11-20T23:58:36.743Z,100.00
